Latest Coastal Weather Observations for King Island Airport

IDV60701

Issued at 6:01 am EDT Wednesday 28 January 2015 (issued every 10 minutes, with the page automatically refreshed every 10 minutes)

About coastal observations | Map of coastal stations | Coastal observations for VIC | Marine services | Other Formats
Station Details ID: 098017 Name: KING ISLAND AIRPORT Lat: -39.88 Lon: 143.88 Height: 37.0 m
Data from the previous 72 hours. | See also: Recent months at King Island Airport
Date/Time
EDT
Temp

°C
Wind Pressure Rain
since 9am
mm
Weather Cloud Vis
km
Sea
Height
m
Swell
Dir
 
Speed
knots
Gust
knots
hPa Trend Height
m
Period
s
Dir
28/06:00am 12.1 E 6 8 1019.1 - 0.0 - - 10 - - - -
28/05:30am 12.3 S 5 7 1018.9 - 0.0 - - 10 - - - -
28/05:00am 12.8 SSE 8 10 1018.7 - 0.0 - - 10 - - - -
28/04:30am 12.9 SSE 10 14 1018.7 - 0.0 - - 10 - - - -
28/04:00am 13.2 SE 12 15 1018.6 - 0.0 - - 10 - - - -
28/03:30am 12.9 SSE 9 13 1018.9 - 0.0 - - 10 - - - -
28/03:00am 13.2 SSE 11 18 1019.1 - 0.0 - - 10 - - - -
28/02:30am 13.2 SSE 12 21 1019.1 - 0.0 - - 10 - - - -
28/02:00am 13.1 SSE 11 17 1019.4 - 0.0 - - 10 - - - -
28/01:30am 13.0 SSE 10 17 1019.4 - 0.0 - - 10 - - - -
28/01:00am 12.7 SSE 11 17 1019.3 - 0.0 - - 10 - - - -
28/12:30am 13.2 SSE 13 17 1019.4 - 0.0 - - 10 - - - -
28/12:00am 12.8 S 12 18 1019.4 - 0.0 - - 10 - - - -
 
Date/Time
EDT
Temp

°C
Wind Pressure Rain
since 9am
mm
Weather Cloud Vis
km
Sea
Height
m
Swell
Dir
 
Speed
knots
Gust
knots
hPa Trend Height
m
Period
s
Dir
27/11:30pm 12.8 S 11 14 1019.5 - 0.0 - - 10 - - - -
27/11:00pm 12.8 S 11 17 1019.5 - 0.0 - - 10 - - - -
27/10:30pm 13.1 S 10 16 1019.6 - 0.0 - - 10 - - - -
27/10:00pm 12.9 S 9 14 1019.7 - 0.0 - Partly cloudy 10 - - - -
27/09:30pm 13.1 S 9 15 1019.5 - 0.0 - - 10 - - - -
27/09:00pm 13.2 S 10 16 1019.5 - 0.0 - - 10 - - - -
27/08:30pm 13.7 S 10 16 1019.4 - 0.0 - - 10 - - - -
27/08:00pm 14.3 S 13 19 1019.1 - 0.0 - Partly cloudy 10 - - - -
27/07:30pm 15.5 S 14 22 1018.8 - 0.0 - Partly cloudy 10 - - - -
27/07:00pm 15.6 SSW 14 20 1018.7 - 0.0 - Partly cloudy 10 - - - -
27/06:37pm 15.6 S 15 25 1018.6 - 0.0 - Partly cloudy 10 - - - -
27/06:30pm 15.5 SSW 15 22 1018.6 - 0.0 - Partly cloudy 10 - - - -
27/06:00pm 16.1 SSW 16 22 1018.5 - 0.0 - Cloudy 10 - - - -
27/05:30pm 16.9 SSW 17 22 1018.6 - 0.0 - Partly cloudy 10 - - - -
27/05:00pm 16.0 SSW 16 21 1018.6 - 0.0 - Partly cloudy 10 - - - -
27/04:30pm 16.5 SSW 15 20 1018.7 - 0.0 - - 10 - - - -
27/04:00pm 16.7 SSW 17 24 1018.8 - 0.0 - - 10 - - - -
27/03:30pm 17.4 SSW 15 22 1018.8 - 0.0 - Partly cloudy 10 - - - -
27/03:00pm 16.9 SSW 16 21 1018.9 - 0.0 - Cloudy 10 - - - -
27/02:30pm 16.5 SSW 13 19 1018.9 - 0.0 - Partly cloudy 10 - - - -
27/02:00pm 16.0 SSW 13 18 1019.1 - 0.0 - Partly cloudy 10 - - - -
27/01:30pm 13.5 SSW 11 15 1019.4 - 0.0 - Partly cloudy 8 - - - -
27/01:00pm 14.2 SSW 15 22 1019.4 - 0.0 - Partly cloudy 10 - - - -
27/12:30pm 16.5 SW 13 18 1019.3 - 0.0 - Partly cloudy 10 - - - -
27/12:00pm 17.2 SSW 10 15 1019.3 - 0.0 - Cloudy 10 - - - -
27/11:30am 15.9 SSW 12 18 1019.4 - 0.0 - Partly cloudy 10 - - - -
27/11:00am 16.7 SSW 11 17 1019.3 - 0.0 - Partly cloudy 10 - - - -
27/10:30am 15.9 SSW 11 15 1019.1 - 0.0 - Partly cloudy 10 - - - -
27/10:00am 15.2 SSW 11 17 1019.2 - 0.0 - Cloudy 10 - - - -
27/09:30am 14.3 S 6 10 1019.2 - 0.0 - Cloudy 10 - - - -
27/09:00am 14.0 SSE 5 7 1019.1 - 0.0 - Mostly cloudy 10 - - - -
27/08:30am 13.3 SSE 4 6 1018.9 - 0.0 - Cloudy 10 - - - -
27/08:00am 12.5 SSE 5 6 1018.5 - 0.0 - Cloudy 10 - - - -
27/07:30am 10.6 SE 4 5 1018.2 - 0.0 - Partly cloudy 10 - - - -
27/07:00am 10.7 SSW 3 5 1018.0 - 0.0 - Partly cloudy 10 - - - -
27/06:30am 9.2 CALM 0 0 1017.8 - 0.0 - Partly cloudy 10 - - - -
27/06:00am 8.1 CALM 0 0 1017.7 - 0.0 - Cloudy 10 - - - -
27/05:30am 7.2 CALM 0 0 1017.5 - 0.0 - Partly cloudy 10 - - - -
27/05:00am 6.5 CALM 0 0 1017.5 - 0.0 - Partly cloudy 10 - - - -
27/04:30am 6.4 CALM 0 0 1017.7 - 0.0 - - 10 - - - -
27/04:00am 7.6 CALM 0 0 1017.7 - 0.0 - Partly cloudy 10 - - - -
27/03:30am 6.7 ESE 1 5 1018.0 - 0.0 - Partly cloudy 10 - - - -
27/03:00am 6.9 CALM 0 0 1018.0 - 0.0 - - 10 - - - -
27/02:30am 7.4 ESE 1 3 1018.2 - 0.0 - - 10 - - - -
27/02:00am 7.7 ESE 3 5 1018.3 - 0.0 - - 10 - - - -
27/01:30am 8.2 ESE 4 4 1018.3 - 0.0 - - 10 - - - -
27/01:00am 8.5 ESE 3 4 1018.6 - 0.0 - Partly cloudy 10 - - - -
27/12:30am 9.4 ESE 3 4 1018.6 - 0.0 - Partly cloudy 10 - - - -
27/12:00am 9.2 CALM 0 0 1018.6 - 0.0 - Partly cloudy 10 - - - -
 
Date/Time
EDT
Temp

°C
Wind Pressure Rain
since 9am
mm
Weather Cloud Vis
km
Sea
Height
m
Swell
Dir
 
Speed
knots
Gust
knots
hPa Trend Height
m
Period
s
Dir
26/11:30pm 9.3 CALM 0 0 1018.9 - 0.0 - Partly cloudy 10 - - - -
26/11:00pm 9.6 CALM 0 0 1019.0 - 0.0 - Partly cloudy 10 - - - -
26/10:30pm 10.7 ESE 2 4 1019.0 - 0.0 - - 10 - - - -
26/10:00pm 12.3 S 3 4 1019.0 - 0.0 - Partly cloudy 10 - - - -
26/09:30pm 12.1 S 4 5 1018.8 - 0.0 - - 10 - - - -
26/09:00pm 12.6 S 4 5 1018.5 - 0.0 - - 10 - - - -
26/08:30pm 13.9 SSW 7 8 1018.3 - 0.0 - Partly cloudy 10 - - - -
26/08:00pm 14.6 SW 8 10 1018.1 - 0.0 - Partly cloudy 10 - - - -
26/07:30pm 15.1 SW 9 13 1017.8 - 0.0 - Partly cloudy 10 - - - -
26/07:00pm 15.5 SSW 9 14 1017.6 - 0.0 - Partly cloudy 10 - - - -
26/06:30pm 15.4 SSW 10 14 1017.4 - 0.0 - Partly cloudy 10 - - - -
26/06:00pm 15.8 SW 9 16 1017.4 - 0.0 - Mostly clear 10 - - - -
26/05:30pm 15.6 SSW 11 17 1017.5 - 0.0 - Partly cloudy 10 - - - -
26/05:00pm 16.2 SW 11 17 1017.5 - 0.0 - Partly cloudy 10 - - - -
26/04:30pm 15.7 SW 11 17 1017.5 - 0.0 - Partly cloudy 10 - - - -
26/04:00pm 16.5 SW 11 16 1017.6 - 0.0 - Partly cloudy 10 - - - -
26/03:30pm 16.0 SW 12 17 1017.6 - 0.0 - Cloudy 10 - - - -
26/03:00pm 16.0 SW 11 16 1017.7 - 0.0 - Cloudy 10 - - - -
26/02:30pm 15.7 SW 13 18 1017.7 - 0.0 - Partly cloudy 10 - - - -
26/02:00pm 16.6 SW 12 17 1017.7 - 0.0 - Partly cloudy 10 - - - -
26/01:30pm 15.7 SSW 11 17 1017.7 - 0.0 - Partly cloudy 10 - - - -
26/01:00pm 16.4 SW 9 16 1017.8 - 0.0 - Partly cloudy 10 - - - -
26/12:30pm 15.5 SW 11 15 1017.9 - 0.0 - Partly cloudy 10 - - - -
26/12:00pm 15.8 SW 10 15 1017.8 - 0.0 - Cloudy 10 - - - -
26/11:30am 15.4 SW 10 15 1017.8 - 0.0 - Partly cloudy 10 - - - -
26/11:00am 16.3 SW 9 14 1017.7 - 0.0 - Partly cloudy 10 - - - -
26/10:30am 15.5 SW 10 15 1017.5 - 0.0 - Partly cloudy 10 - - - -
26/10:00am 14.9 SW 10 16 1017.4 - 0.0 - Partly cloudy 10 - - - -
26/09:30am 14.4 SW 10 15 1017.1 - 0.0 - Partly cloudy 10 - - - -
26/09:00am 14.8 SSW 11 15 1016.8 - 1.0 - Mostly clear 10 - - - -
26/08:30am 14.6 SW 10 14 1016.5 - 1.0 - - 10 - - - -
26/08:00am 14.0 SSW 10 15 1016.1 - 1.0 - - 10 - - - -
26/07:30am 12.8 SSW 8 10 1015.7 - 1.0 - Partly cloudy 10 - - - -
26/07:00am 12.2 SW 7 8 1015.2 - 1.0 - - 10 - - - -
26/06:30am 11.4 SSW 7 10 1014.8 - 1.0 - Partly cloudy 10 - - - -
26/06:00am 11.4 SSW 9 11 1014.4 - 1.0 Rain Partly cloudy 10 - - - -
26/05:30am 12.2 SW 9 14 1014.1 - 0.8 - - 10 - - - -
26/05:00am 11.9 SW 8 10 1013.8 - 0.8 - Partly cloudy 10 - - - -
26/04:30am 12.2 SW 7 10 1013.5 - 0.8 - Partly cloudy 10 - - - -
26/04:00am 12.1 WSW 7 9 1013.3 - 0.6 - Partly cloudy 10 - - - -
26/03:30am 11.8 W 8 11 1013.3 - 0.6 - Partly cloudy 10 - - - -
26/03:00am 12.1 WSW 7 13 1013.1 - 0.2 Rain Mostly cloudy 10 - - - -
26/02:30am 13.2 SW 9 15 1013.0 - 0.0 - Partly cloudy 10 - - - -
26/02:00am 13.0 WSW 11 15 1012.7 - 0.0 - Partly cloudy 10 - - - -
26/01:30am 13.4 WSW 11 16 1012.6 - 0.0 - Partly cloudy 10 - - - -
26/01:00am 12.8 SW 9 12 1012.5 - 0.0 - Partly cloudy 10 - - - -
26/12:30am 13.0 SW 11 16 1012.5 - 0.0 - Partly cloudy 10 - - - -
26/12:00am 13.3 SW 13 18 1012.3 - 0.0 - Cloudy 10 - - - -
 
Date/Time
EDT
Temp

°C
Wind Pressure Rain
since 9am
mm
Weather Cloud Vis
km
Sea
Height
m
Swell
Dir
 
Speed
knots
Gust
knots
hPa Trend Height
m
Period
s
Dir
25/11:30pm 13.1 WSW 13 18 1012.2 - 0.0 - Partly cloudy 10 - - - -
25/11:00pm 13.1 WSW 12 16 1012.2 - 0.0 - Partly cloudy 10 - - - -
25/10:30pm 13.3 WSW 13 19 1012.0 - 0.0 - Partly cloudy 10 - - - -
25/10:00pm 13.2 WSW 17 22 1011.6 - 0.0 - Partly cloudy 10 - - - -
25/09:30pm 13.4 WSW 15 21 1011.4 - 0.0 - Partly cloudy 10 - - - -
25/09:00pm 13.3 WSW 16 23 1010.9 - 0.0 - Mostly clear 10 - - - -
25/08:30pm 13.4 WSW 19 26 1010.7 - 0.0 - Partly cloudy 10 - - - -
25/08:00pm 14.0 W 17 24 1010.4 - 0.0 - Partly cloudy 10 - - - -
25/07:30pm 14.8 WSW 17 24 1010.0 - 0.0 - Partly cloudy 10 - - - -
25/07:00pm 15.3 WSW 19 27 1009.8 - 0.0 - Partly cloudy 10 - - - -
25/06:30pm 15.3 WSW 19 30 1009.2 - 0.0 - Partly cloudy 10 - - - -
25/06:25pm 15.9 WSW 19 30 1009.1 - 0.0 - Partly cloudy 10 - - - -
25/06:00pm 15.1 W 18 25 1009.2 - 0.0 - Mostly clear 10 - - - -
25/05:53pm 15.2 WSW 18 28 1009.1 - 0.0 - Partly cloudy 10 - - - -
25/05:30pm 15.4 WSW 21 29 1008.9 - 0.0 - Partly cloudy 10 - - - -
25/05:00pm 15.8 WSW 20 27 1008.6 - 0.0 - - 10 - - - -
25/04:30pm 15.8 W 18 24 1008.5 - 0.0 - Partly cloudy 10 - - - -
25/04:00pm 15.7 WSW 21 29 1008.4 - 0.0 - Partly cloudy 10 - - - -
25/03:40pm 15.7 W 20 30 1008.2 - 0.0 - Partly cloudy 10 - - - -
25/03:30pm 16.1 WSW 21 30 1008.2 - 0.0 - Partly cloudy 10 - - - -
25/03:13pm 15.7 W 22 32 1008.0 - 0.0 - Partly cloudy 10 - - - -
25/03:00pm 15.8 W 23 31 1008.0 - 0.0 - Mostly clear 10 - - - -
25/02:30pm 16.0 W 21 28 1007.9 - 0.0 - Partly cloudy 10 - - - -
25/02:00pm 15.5 WSW 20 30 1007.6 - 0.0 - Partly cloudy 10 - - - -
25/01:37pm 14.7 W 20 31 1007.3 - 0.0 - Partly cloudy 10 - - - -
25/01:30pm 15.7 W 20 27 1007.3 - 0.0 - Partly cloudy 10 - - - -
25/01:12pm 15.7 WSW 20 30 1007.1 - 0.0 - Partly cloudy 10 - - - -
25/01:00pm 14.7 WSW 20 28 1007.0 - 0.0 - Partly cloudy 10 - - - -
25/12:40pm 15.5 W 22 34 1006.8 - 0.0 - Partly cloudy 10 - - - -
25/12:30pm 15.6 W 21 28 1006.6 - 0.0 - Partly cloudy 10 - - - -
25/12:14pm 16.3 W 19 31 1006.6 - 0.0 - Partly cloudy 10 - - - -
25/12:00pm 15.6 W 18 26 1006.5 - 0.0 Rain Mostly cloudy 10 - - - -
25/11:30am 13.4 W 25 39 1006.2 - 0.0 - Partly cloudy 10 - - - -
25/11:25am 15.0 W 22 39 1006.0 - 0.0 - Partly cloudy 10 - - - -
25/11:12am 15.9 W 18 28 1005.8 - 0.0 - Partly cloudy 10 - - - -
25/11:00am 15.4 W 18 26 1005.7 - 0.0 - Partly cloudy 10 - - - -
25/10:42am 15.5 W 18 28 1005.6 - 0.0 - Partly cloudy 10 - - - -
25/10:30am 15.1 W 19 27 1005.5 - 0.0 - Partly cloudy 10 - - - -
25/10:00am 14.7 W 18 25 1005.3 - 0.0 - Partly cloudy 10 - - - -
25/09:30am 14.7 W 18 26 1005.1 - 0.0 - Partly cloudy 10 - - - -
25/09:08am 14.9 W 18 28 1004.9 - 0.0 - Partly cloudy 10 - - - -
25/09:00am 14.9 W 18 25 1004.8 - 6.8 - Mostly clear 10 - - - -
25/08:44am 14.0 W 17 27 1004.7 - 6.8 - Partly cloudy 10 - - - -
25/08:30am 14.1 W 16 22 1004.5 - 6.8 - Partly cloudy 10 - - - -
25/08:00am 14.1 W 17 23 1004.1 - 6.8 - Partly cloudy 10 - - - -
25/07:30am 12.8 W 15 22 1003.9 - 6.8 - Partly cloudy 10 - - - -
25/07:00am 13.2 W 17 23 1003.6 - 6.8 - Partly cloudy 10 - - - -
25/06:50am 13.3 WSW 15 26 1003.6 - 6.8 - Partly cloudy 10 - - - -
25/06:30am 13.3 WSW 14 19 1003.2 - 6.8 - Partly cloudy 10 - - - -

Other Formats:

Comma delimited format used in spreadsheet applications
http://www.bom.gov.au/fwo/IDV60701/IDV60701.94850.axf

JavaScript Object Notation format (JSON) in row-major order
http://www.bom.gov.au/fwo/IDV60701/IDV60701.94850.json